createdAt,value
2023-04-16T00:02:30.925Z,98506.41
2023-04-16T00:05:32.681Z,98502.03
2023-04-16T00:08:35.903Z,98501.19
2023-04-16T00:11:38.852Z,98511.81
2023-04-16T00:14:40.642Z,98505.63
2023-04-16T00:17:42.430Z,98510.00
2023-04-16T00:20:44.335Z,98504.69
2023-04-16T00:23:46.532Z,98501.19
2023-04-16T00:26:49.529Z,98508.22
2023-04-16T00:29:51.420Z,98516.16
2023-04-16T00:32:53.394Z,98519.75
2023-04-16T00:35:55.181Z,98517.91
2023-04-16T00:38:56.969Z,98505.53
2023-04-16T00:41:59.965Z,98517.91
2023-04-16T00:45:01.795Z,98528.59
2023-04-16T00:48:04.099Z,98522.44
2023-04-16T00:51:06.564Z,98525.00
2023-04-16T00:54:08.231Z,98518.84
2023-04-16T00:57:13.398Z,98530.38
2023-04-16T01:00:15.333Z,98529.47
2023-04-16T01:03:17.370Z,98533.06
2023-04-16T01:06:19.658Z,98523.34
2023-04-16T01:09:21.849Z,98526.94
2023-04-16T01:12:24.751Z,98532.25
2023-04-16T01:15:27.929Z,98528.75
2023-04-16T01:18:30.045Z,98535.91
2023-04-16T01:21:32.979Z,98545.66
2023-04-16T01:24:34.702Z,98536.91
2023-04-16T01:27:37.786Z,98554.56
2023-04-16T01:30:39.532Z,98549.38
2023-04-16T01:33:53.181Z,98549.38
2023-04-16T01:36:56.403Z,98560.00
2023-04-16T01:39:58.300Z,98549.47
2023-04-16T01:43:00.071Z,98554.91
2023-04-16T01:46:13.858Z,98551.44
2023-04-16T01:49:16.001Z,98551.44
2023-04-16T01:52:22.206Z,98559.53
2023-04-16T01:55:23.937Z,98555.16
2023-04-16T01:58:25.726Z,98557.00
2023-04-16T02:01:27.585Z,98561.47
2023-04-16T02:04:30.396Z,98567.69
2023-04-16T02:07:33.455Z,98558.00
2023-04-16T02:10:35.141Z,98562.44
2023-04-16T02:13:37.345Z,98562.50
2023-04-16T02:16:40.072Z,98563.38
2023-04-16T02:20:08.031Z,98558.91
2023-04-16T02:23:15.119Z,98571.28
2023-04-16T02:26:17.215Z,98573.94
2023-04-16T02:29:19.899Z,98566.88
2023-04-16T02:32:27.798Z,98566.03
2023-04-16T02:35:29.494Z,98566.94
2023-04-16T02:38:33.259Z,98567.97
2023-04-16T02:41:35.130Z,98568.88
2023-04-16T02:44:37.084Z,98584.94
2023-04-16T02:47:38.762Z,98581.53
2023-04-16T02:50:40.531Z,98580.81
2023-04-16T02:53:46.075Z,98579.13
2023-04-16T02:56:48.237Z,98588.16
2023-04-16T02:59:49.921Z,98583.03
2023-04-16T03:02:51.744Z,98584.94
2023-04-16T03:05:53.571Z,98585.94
2023-04-16T03:08:56.829Z,98590.41
2023-04-16T03:11:58.476Z,98583.50
2023-04-16T03:15:00.557Z,98590.59
2023-04-16T03:18:02.327Z,98587.97
2023-04-16T03:21:04.290Z,98582.72
2023-04-16T03:24:08.093Z,98588.00
2023-04-16T03:27:09.725Z,98580.06
2023-04-16T03:30:12.314Z,98578.31
2023-04-16T03:33:14.157Z,98574.75
2023-04-16T03:36:15.771Z,98578.38
2023-04-16T03:39:19.463Z,98581.94
2023-04-16T03:42:21.448Z,98581.94
2023-04-16T03:45:23.472Z,98576.66
2023-04-16T03:48:26.915Z,98577.69
2023-04-16T03:51:28.974Z,98583.84
2023-04-16T03:54:32.650Z,98583.00
2023-04-16T03:57:45.599Z,98585.66
2023-04-16T04:00:50.039Z,98586.59
2023-04-16T04:03:53.247Z,98593.78
2023-04-16T04:06:55.854Z,98595.56
2023-04-16T04:09:59.947Z,98599.09
2023-04-16T04:13:03.030Z,98602.03
2023-04-16T04:16:05.560Z,98604.13
2023-04-16T04:19:08.181Z,98608.66
2023-04-16T04:22:11.151Z,98608.75
2023-04-16T04:25:14.808Z,98607.03
2023-04-16T04:28:16.510Z,98610.63
2023-04-16T04:31:20.451Z,98611.50
2023-04-16T04:34:22.056Z,98615.31
2023-04-16T04:37:23.850Z,98618.03
2023-04-16T04:40:26.999Z,98616.41
2023-04-16T04:43:29.086Z,98618.31
2023-04-16T04:46:30.990Z,98623.69
2023-04-16T04:49:32.843Z,98622.75
2023-04-16T04:52:34.669Z,98631.63
2023-04-16T04:55:38.875Z,98630.88
2023-04-16T04:58:40.867Z,98630.97
2023-04-16T05:01:42.625Z,98645.19
2023-04-16T05:04:44.451Z,98648.88
2023-04-16T05:07:46.231Z,98648.09
2023-04-16T05:10:49.437Z,98648.09
2023-04-16T05:13:51.287Z,98660.50
2023-04-16T05:16:54.069Z,98664.97
2023-04-16T05:19:55.994Z,98665.19
2023-04-16T05:22:57.974Z,98667.94
2023-04-16T05:26:01.152Z,98668.94
2023-04-16T05:29:02.686Z,98668.16
2023-04-16T05:32:04.421Z,98672.47
2023-04-16T05:35:06.963Z,98673.38
2023-04-16T05:38:08.860Z,98677.78
2023-04-16T05:41:11.849Z,98685.78
2023-04-16T05:44:13.462Z,98692.84
2023-04-16T05:47:15.545Z,98690.25
2023-04-16T05:50:17.251Z,98704.25
2023-04-16T05:53:19.128Z,98703.41
2023-04-16T05:56:22.077Z,98698.09
2023-04-16T05:59:23.684Z,98701.66
2023-04-16T06:02:25.603Z,98709.63
2023-04-16T06:05:27.730Z,98707.88
2023-04-16T06:08:29.322Z,98716.66
2023-04-16T06:14:34.519Z,98723.72
2023-04-16T06:17:36.364Z,98728.97
2023-04-16T06:20:38.122Z,98737.78
2023-04-16T06:23:39.940Z,98735.19
2023-04-16T06:26:47.420Z,98728.16
2023-04-16T06:29:49.511Z,98737.94
2023-04-16T06:32:51.289Z,98734.38
2023-04-16T06:35:53.151Z,98745.78
2023-04-16T06:38:55.147Z,98740.44
2023-04-16T06:41:59.034Z,98744.06
2023-04-16T06:45:01.504Z,98745.84
2023-04-16T06:48:05.242Z,98743.19
2023-04-16T06:51:07.036Z,98749.38
2023-04-16T06:54:08.716Z,98757.25
2023-04-16T06:57:12.100Z,98754.59
2023-04-16T07:00:13.993Z,98759.00
2023-04-16T07:03:15.848Z,98757.97
2023-04-16T07:06:17.776Z,98757.75
2023-04-16T07:09:20.053Z,98770.94
2023-04-16T07:12:25.653Z,98777.13
2023-04-16T07:15:27.699Z,98774.47
2023-04-16T07:18:29.570Z,98771.75
2023-04-16T07:21:31.849Z,98771.66
2023-04-16T07:24:33.945Z,98775.22
2023-04-16T07:27:37.160Z,98782.22
2023-04-16T07:30:38.939Z,98786.53
2023-04-16T07:33:40.687Z,98790.13
2023-04-16T07:36:42.607Z,98786.44
2023-04-16T07:39:44.351Z,98789.16
2023-04-16T07:42:47.422Z,98788.97
2023-04-16T07:45:49.688Z,98798.66
2023-04-16T07:48:51.572Z,98805.69
2023-04-16T07:51:53.186Z,98802.00
2023-04-16T07:54:54.740Z,98816.00
2023-04-16T07:57:57.850Z,98820.06
2023-04-16T08:00:59.784Z,98811.41
2023-04-16T08:04:01.759Z,98820.13
2023-04-16T08:07:03.797Z,98825.38
2023-04-16T08:10:06.064Z,98818.09
2023-04-16T08:13:09.165Z,98826.00
2023-04-16T08:16:13.440Z,98830.34
2023-04-16T08:19:15.889Z,98832.94
2023-04-16T08:22:17.744Z,98837.91
2023-04-16T08:25:20.230Z,98837.06
2023-04-16T08:28:23.791Z,98842.38
2023-04-16T08:31:25.683Z,98855.81
2023-04-16T08:34:27.500Z,98854.03
2023-04-16T08:37:30.324Z,98842.53
2023-04-16T08:40:35.337Z,98853.03
2023-04-16T08:43:39.446Z,98859.13
2023-04-16T08:46:41.681Z,98858.91
2023-04-16T08:49:44.176Z,98863.09
2023-04-16T08:52:47.060Z,98867.38
2023-04-16T08:55:50.480Z,98870.13
2023-04-16T08:58:58.369Z,98869.13
2023-04-16T09:02:00.844Z,98858.34
2023-04-16T09:05:03.610Z,98865.34
2023-04-16T09:08:06.606Z,98872.50
2023-04-16T09:11:08.272Z,98866.38
2023-04-16T09:14:12.200Z,98868.09
2023-04-16T09:17:14.820Z,98872.38
2023-04-16T09:20:16.675Z,98874.13
2023-04-16T09:23:18.642Z,98878.38
2023-04-16T09:26:20.821Z,98874.75
2023-04-16T09:29:37.149Z,98874.06
2023-04-16T09:32:38.943Z,98871.34
2023-04-16T09:35:45.423Z,98884.19
2023-04-16T09:38:48.411Z,98885.19
2023-04-16T09:41:54.871Z,98876.16
2023-04-16T09:45:00.297Z,98889.44
2023-04-16T09:48:04.973Z,98888.31
2023-04-16T09:51:07.506Z,98895.47
2023-04-16T09:54:09.095Z,98900.69
2023-04-16T09:57:10.979Z,98899.22
2023-04-16T10:00:19.102Z,98893.09
2023-04-16T10:03:29.032Z,98903.72
2023-04-16T10:06:31.561Z,98905.56
2023-04-16T10:09:37.688Z,98905.72
2023-04-16T10:12:39.603Z,98914.56
2023-04-16T10:15:43.210Z,98910.22
2023-04-16T10:18:45.905Z,98911.03
2023-04-16T10:21:50.665Z,98913.69
2023-04-16T10:24:52.781Z,98918.03
2023-04-16T10:27:55.548Z,98925.94
2023-04-16T10:30:58.809Z,98916.91
2023-04-16T10:34:00.721Z,98926.53
2023-04-16T10:37:02.479Z,98935.28
2023-04-16T10:40:21.836Z,98934.50
2023-04-16T10:43:25.368Z,98936.09
2023-04-16T10:46:30.993Z,98936.88
2023-04-16T10:49:35.524Z,98928.91
2023-04-16T10:52:37.619Z,98929.78
2023-04-16T10:55:39.497Z,98938.69
2023-04-16T10:58:41.362Z,98931.47
2023-04-16T11:01:45.609Z,98929.63
2023-04-16T11:04:48.239Z,98930.31
2023-04-16T11:07:50.066Z,98935.81
2023-04-16T11:10:51.836Z,98925.41
2023-04-16T11:13:55.760Z,98932.50
2023-04-16T11:17:01.647Z,98930.66
2023-04-16T11:20:03.494Z,98938.75
2023-04-16T11:23:19.175Z,98938.78
2023-04-16T11:26:22.835Z,98936.03
2023-04-16T11:29:24.398Z,98930.72
2023-04-16T11:32:27.581Z,98931.56
2023-04-16T11:35:29.247Z,98933.19
2023-04-16T11:38:35.236Z,98947.03
2023-04-16T11:41:42.261Z,98947.75
2023-04-16T11:44:43.900Z,98939.69
2023-04-16T11:47:47.653Z,98945.94
2023-04-16T11:50:55.103Z,98951.19
2023-04-16T11:53:56.701Z,98955.63
2023-04-16T11:56:58.264Z,98955.63
2023-04-16T12:00:02.083Z,98952.81
2023-04-16T12:03:15.929Z,98956.34
2023-04-16T12:06:18.224Z,98954.66
2023-04-16T12:09:24.084Z,98963.41
2023-04-16T12:12:27.175Z,98961.72
2023-04-16T12:15:43.417Z,98971.69
2023-04-16T12:19:01.466Z,98967.31
2023-04-16T12:22:05.581Z,98965.84
2023-04-16T12:25:12.797Z,98966.84
2023-04-16T12:28:16.660Z,98969.44
2023-04-16T12:31:20.481Z,98969.44
2023-04-16T12:34:22.484Z,98979.19
2023-04-16T12:37:43.052Z,98978.28
2023-04-16T12:40:45.142Z,98974.81
2023-04-16T12:43:47.241Z,98979.31
2023-04-16T12:46:49.070Z,98977.78
2023-04-16T12:49:51.191Z,98983.31
2023-04-16T12:52:55.580Z,98979.84
2023-04-16T12:55:57.728Z,98989.84
2023-04-16T12:58:59.698Z,98989.25
2023-04-16T13:02:05.886Z,98986.59
2023-04-16T13:05:08.367Z,98982.91
2023-04-16T13:08:11.728Z,98993.44
2023-04-16T13:11:14.123Z,98991.75
2023-04-16T13:14:16.179Z,98983.88
2023-04-16T13:17:18.389Z,98981.13
2023-04-16T13:20:22.470Z,98978.31
2023-04-16T13:23:27.453Z,98982.59
2023-04-16T13:26:29.730Z,98987.81
2023-04-16T13:29:36.768Z,98984.19
2023-04-16T13:32:38.879Z,98984.06
2023-04-16T13:35:40.747Z,98986.53
2023-04-16T13:38:44.812Z,98988.25
2023-04-16T13:41:47.708Z,98981.91
2023-04-16T13:44:53.182Z,98985.47
2023-04-16T13:47:55.735Z,98988.03
2023-04-16T13:50:57.322Z,98980.00
2023-04-16T13:54:00.379Z,98994.16
2023-04-16T13:57:02.329Z,98992.31
2023-04-16T14:00:06.727Z,98985.25
2023-04-16T14:03:08.801Z,98983.47
2023-04-16T14:06:10.506Z,98980.81
2023-04-16T14:09:13.843Z,98988.59
2023-04-16T14:12:16.675Z,98988.50
2023-04-16T14:15:18.844Z,98995.56
2023-04-16T14:18:20.784Z,98989.28
2023-04-16T14:21:22.487Z,98997.03
2023-04-16T14:24:25.757Z,98994.31
2023-04-16T14:27:28.371Z,98991.31
2023-04-16T14:30:35.268Z,98988.59
2023-04-16T14:33:36.966Z,98987.84
2023-04-16T14:36:38.696Z,98994.03
2023-04-16T14:39:42.422Z,98990.44
2023-04-16T14:42:44.089Z,98990.34
2023-04-16T14:45:46.215Z,98985.72
2023-04-16T14:48:48.039Z,98997.09
2023-04-16T14:51:49.836Z,98991.88
2023-04-16T14:54:54.819Z,98990.75
2023-04-16T14:57:56.946Z,98994.19
2023-04-16T15:00:58.629Z,98992.16
2023-04-16T15:04:02.054Z,98994.81
2023-04-16T15:07:03.854Z,98990.88
2023-04-16T15:10:07.605Z,98987.06
2023-04-16T15:13:09.248Z,98984.88
2023-04-16T15:16:10.986Z,98979.50
2023-04-16T15:19:12.706Z,98980.06
2023-04-16T15:22:14.923Z,98982.34
2023-04-16T15:25:17.980Z,98985.81
2023-04-16T15:28:19.759Z,98993.06
2023-04-16T15:31:21.925Z,98987.84
2023-04-16T15:34:23.549Z,98987.03
2023-04-16T15:37:25.244Z,98980.84
2023-04-16T15:40:28.275Z,98989.53
2023-04-16T15:43:30.145Z,98996.38
2023-04-16T15:46:32.364Z,98995.22
2023-04-16T15:49:34.339Z,98998.50
2023-04-16T15:52:36.598Z,99002.09
2023-04-16T15:55:39.757Z,98994.97
2023-04-16T15:58:41.756Z,99001.28
2023-04-16T16:01:43.635Z,98994.22
2023-04-16T16:04:46.347Z,99003.00
2023-04-16T16:07:48.433Z,98996.81
2023-04-16T16:10:52.413Z,99000.34
2023-04-16T16:13:54.518Z,99007.53
2023-04-16T16:16:56.345Z,99016.44
2023-04-16T16:19:58.789Z,99018.31
2023-04-16T16:23:03.448Z,99024.53
2023-04-16T16:26:07.282Z,99014.78
2023-04-16T16:29:09.446Z,99017.41
2023-04-16T16:32:14.666Z,99017.47
2023-04-16T16:35:18.757Z,99018.31
2023-04-16T16:38:20.921Z,99013.78
2023-04-16T16:41:24.251Z,99016.50
2023-04-16T16:44:26.497Z,99015.63
2023-04-16T16:47:28.379Z,99019.19
2023-04-16T16:50:31.196Z,99014.72
2023-04-16T16:53:33.224Z,99021.97
2023-04-16T16:56:36.818Z,99027.34
2023-04-16T16:59:38.808Z,99027.34
2023-04-16T17:02:49.841Z,99026.56
2023-04-16T17:06:20.302Z,99031.94
2023-04-16T17:09:22.351Z,99030.19
2023-04-16T17:12:26.135Z,99029.31
2023-04-16T17:15:28.771Z,99031.09
2023-04-16T17:18:30.787Z,99028.44
2023-04-16T17:21:33.931Z,99030.34
2023-04-16T17:24:36.148Z,99030.41
2023-04-16T17:27:39.825Z,99033.97
2023-04-16T17:30:42.461Z,99031.44
2023-04-16T17:34:00.141Z,99033.22
2023-04-16T17:37:02.459Z,99029.59
2023-04-16T17:40:07.844Z,99038.50
2023-04-16T17:43:12.027Z,99038.56
2023-04-16T17:46:13.883Z,99037.69
2023-04-16T17:49:16.148Z,99043.91
2023-04-16T17:52:17.898Z,99045.69
2023-04-16T17:55:19.552Z,99044.78
2023-04-16T17:58:22.951Z,99051.03
2023-04-16T18:01:24.837Z,99056.41
2023-04-16T18:04:33.986Z,99057.34
2023-04-16T18:07:36.568Z,99068.84
2023-04-16T18:10:38.744Z,99074.28
2023-04-16T18:13:44.041Z,99068.50
2023-04-16T18:16:46.826Z,99083.22
2023-04-16T18:19:48.952Z,99081.88
2023-04-16T18:22:51.025Z,99087.66
2023-04-16T18:25:53.380Z,99087.22
2023-04-16T18:28:56.652Z,99097.25
2023-04-16T18:31:59.119Z,99104.63
2023-04-16T18:35:00.992Z,99102.25
2023-04-16T18:38:02.914Z,99097.16
2023-04-16T18:41:05.073Z,99098.19
2023-04-16T18:44:10.736Z,99103.59
2023-04-16T18:47:12.384Z,99110.69
2023-04-16T18:50:14.116Z,99102.59
2023-04-16T18:53:15.742Z,99110.53
2023-04-16T18:56:17.388Z,99111.22
2023-04-16T18:59:20.300Z,99111.09
2023-04-16T19:02:22.125Z,99112.03
2023-04-16T19:05:24.288Z,99114.63
2023-04-16T19:08:27.020Z,99112.75
2023-04-16T19:11:28.874Z,99122.41
2023-04-16T19:14:32.094Z,99118.06
2023-04-16T19:17:33.774Z,99114.44
2023-04-16T19:20:35.653Z,99122.38
2023-04-16T19:23:37.429Z,99116.22
2023-04-16T19:26:39.292Z,99118.88
2023-04-16T19:29:43.524Z,99119.75
2023-04-16T19:32:45.135Z,99122.47
2023-04-16T19:35:47.412Z,99125.94
2023-04-16T19:38:49.118Z,99126.81
2023-04-16T19:41:50.662Z,99131.25
2023-04-16T19:44:53.818Z,99131.25
2023-04-16T19:47:56.494Z,99129.53
2023-04-16T19:51:01.203Z,99132.13
2023-04-16T19:54:02.934Z,99134.84
2023-04-16T19:57:05.688Z,99135.75
2023-04-16T20:00:11.455Z,99140.25
2023-04-16T20:03:13.966Z,99133.19
2023-04-16T20:06:17.540Z,99132.38
2023-04-16T20:09:20.242Z,99133.28
2023-04-16T20:12:22.478Z,99131.53
2023-04-16T20:15:26.117Z,99139.50
2023-04-16T20:18:28.860Z,99144.84
2023-04-16T20:21:32.509Z,99144.00
2023-04-16T20:24:34.851Z,99145.81
2023-04-16T20:27:36.608Z,99143.22
2023-04-16T20:30:40.486Z,99150.31
2023-04-16T20:33:42.436Z,99149.50
2023-04-16T20:36:44.176Z,99145.97
2023-04-16T20:39:46.941Z,99152.22
2023-04-16T20:42:51.081Z,99144.34
2023-04-16T20:45:57.147Z,99142.63
2023-04-16T20:48:58.800Z,99139.19
2023-04-16T20:52:00.611Z,99140.13
2023-04-16T20:55:06.012Z,99137.47
2023-04-16T20:58:07.710Z,99136.66
2023-04-16T21:01:10.984Z,99143.72
2023-04-16T21:04:13.090Z,99146.25
2023-04-16T21:07:14.783Z,99144.50
2023-04-16T21:10:20.178Z,99151.63
2023-04-16T21:13:23.644Z,99149.13
2023-04-16T21:16:27.446Z,99153.66
2023-04-16T21:19:29.110Z,99153.66
2023-04-16T21:22:30.788Z,99158.09
2023-04-16T21:25:33.600Z,99152.78
2023-04-16T21:28:35.188Z,99154.63
2023-04-16T21:31:38.281Z,99159.06
2023-04-16T21:34:39.895Z,99160.91
2023-04-16T21:37:41.503Z,99166.25
2023-04-16T21:40:43.189Z,99164.50
2023-04-16T21:43:47.842Z,99166.34
2023-04-16T21:46:51.285Z,99159.25
2023-04-16T21:49:52.815Z,99168.22
2023-04-16T21:52:54.859Z,99162.03
2023-04-16T21:55:56.456Z,99158.56
2023-04-16T21:58:58.417Z,99163.88
2023-04-16T22:02:01.953Z,99167.44
2023-04-16T22:05:03.759Z,99165.75
2023-04-16T22:08:20.948Z,99160.34
2023-04-16T22:11:30.041Z,99165.53
2023-04-16T22:14:31.944Z,99159.25
2023-04-16T22:17:35.060Z,99162.81
2023-04-16T22:20:39.098Z,99160.25
2023-04-16T22:23:41.033Z,99159.44
2023-04-16T22:26:42.701Z,99160.25
2023-04-16T22:29:44.366Z,99165.66
2023-04-16T22:32:47.374Z,99170.00
2023-04-16T22:35:49.144Z,99160.38
2023-04-16T22:38:50.898Z,99158.66
2023-04-16T22:41:52.483Z,99156.09
2023-04-16T22:44:56.879Z,99160.50
2023-04-16T22:47:59.816Z,99167.59
2023-04-16T22:51:01.792Z,99164.97
2023-04-16T22:54:03.580Z,99168.53
2023-04-16T22:57:05.268Z,99162.44
2023-04-16T23:00:15.794Z,99167.75
2023-04-16T23:03:18.995Z,99168.66
2023-04-16T23:06:20.719Z,99164.28
2023-04-16T23:09:22.545Z,99164.34
2023-04-16T23:12:24.186Z,99170.50
2023-04-16T23:15:25.852Z,99170.50
2023-04-16T23:18:28.974Z,99166.94
2023-04-16T23:21:30.996Z,99157.22
2023-04-16T23:24:32.554Z,99170.50
2023-04-16T23:27:34.143Z,99165.97
2023-04-16T23:30:35.682Z,99167.81
2023-04-16T23:33:39.083Z,99170.50
2023-04-16T23:36:40.831Z,99162.53
2023-04-16T23:39:42.516Z,99162.63
2023-04-16T23:42:44.178Z,99169.69
2023-04-16T23:45:46.004Z,99165.16
2023-04-16T23:48:49.151Z,99166.94
2023-04-16T23:51:50.891Z,99170.59
2023-04-16T23:54:52.709Z,99167.13
2023-04-16T23:57:54.242Z,99167.97
